SJV674 WARR-WAGG
Flight info
| Callsign | SJV674 |
|---|---|
| Flight time | N/A |
| Altitude | 35000 |
| Route | RAMPY W31 BDM |
| Aircraft | A320/M-SDE3FGHIRWY/LB1 |
Departure
| Time | 2026-04-30 14:28 |
|---|---|
| Airport | Juanda International Airport (WARR) |
Arrival
| Time | N/A |
|---|---|
| Airport | Tjilik Riwut Airport (WAGG) |
| Time | Latitude | Longitude | Altitude | Speed | Heading |
|---|---|---|---|---|---|
| 2026-04-30 14:08 | -7.37570 | 112.79347 | 19 ft | 0 kts | 9° |
| 2026-04-30 14:18 | -7.37580 | 112.79346 | 19 ft | 2 kts | 8° |
| 2026-04-30 14:19 | -7.37609 | 112.79341 | 19 ft | 2 kts | 8° |
| 2026-04-30 14:19 | -7.37624 | 112.79339 | 19 ft | 2 kts | 12° |
| 2026-04-30 14:19 | -7.37638 | 112.79332 | 19 ft | 2 kts | 39° |
| 2026-04-30 14:20 | -7.37648 | 112.79321 | 19 ft | 2 kts | 61° |
| 2026-04-30 14:20 | -7.37653 | 112.79306 | 19 ft | 2 kts | 83° |
| 2026-04-30 14:20 | -7.37652 | 112.79290 | 19 ft | 0 kts | 99° |
| 2026-04-30 14:23 | -7.37657 | 112.79317 | 19 ft | 5 kts | 99° |
| 2026-04-30 14:23 | -7.37673 | 112.79417 | 19 ft | 6 kts | 99° |
| 2026-04-30 14:24 | -7.37766 | 112.79439 | 19 ft | 10 kts | 189° |
| 2026-04-30 14:24 | -7.37844 | 112.79427 | 19 ft | 11 kts | 188° |
| 2026-04-30 14:25 | -7.37934 | 112.79457 | 19 ft | 8 kts | 98° |
| 2026-04-30 14:25 | -7.37957 | 112.79605 | 19 ft | 12 kts | 99° |
| 2026-04-30 14:26 | -7.37988 | 112.79797 | 19 ft | 14 kts | 99° |
| 2026-04-30 14:26 | -7.38005 | 112.79900 | 19 ft | 14 kts | 99° |
| 2026-04-30 14:26 | -7.38058 | 112.80038 | 19 ft | 10 kts | 165° |
| 2026-04-30 14:27 | -7.38134 | 112.80032 | 19 ft | 11 kts | 187° |
| 2026-04-30 14:27 | -7.38192 | 112.80023 | 19 ft | 3 kts | 199° |
| 2026-04-30 14:27 | -7.38197 | 112.79997 | 19 ft | 5 kts | 278° |
| 2026-04-30 14:28 | -7.38061 | 112.79164 | 20 ft | 132 kts | 279° |
| 2026-04-30 14:28 | -7.37886 | 112.78062 | 243 ft | 173 kts | 279° |
| 2026-04-30 14:28 | -7.37704 | 112.76881 | 1127 ft | 169 kts | 278° |
| 2026-04-30 14:28 | -7.37530 | 112.75732 | 2010 ft | 165 kts | 278° |
| 2026-04-30 14:29 | -7.37161 | 112.73263 | 2910 ft | 196 kts | 278° |
| 2026-04-30 14:29 | -7.36788 | 112.70798 | 3599 ft | 232 kts | 281° |
| 2026-04-30 14:30 | -7.32206 | 112.68810 | 5770 ft | 271 kts | 34° |
| 2026-04-30 14:31 | -7.29937 | 112.71695 | 7448 ft | 276 kts | 57° |
| 2026-04-30 14:31 | -7.27806 | 112.74913 | 9045 ft | 283 kts | 56° |
| 2026-04-30 14:31 | -7.26669 | 112.76573 | 9826 ft | 286 kts | 55° |
| 2026-04-30 14:32 | -7.24301 | 112.79978 | 10879 ft | 309 kts | 55° |
| 2026-04-30 14:32 | -7.23016 | 112.81816 | 11194 ft | 327 kts | 55° |
| 2026-04-30 14:32 | -7.21655 | 112.83757 | 11496 ft | 344 kts | 53° |
| 2026-04-30 14:33 | -7.20031 | 112.85583 | 11926 ft | 356 kts | 41° |
| 2026-04-30 14:33 | -7.15776 | 112.88248 | 13318 ft | 361 kts | 26° |
| 2026-04-30 14:33 | -7.13498 | 112.89385 | 13948 ft | 364 kts | 26° |
| 2026-04-30 14:34 | -7.11228 | 112.90530 | 14566 ft | 368 kts | 26° |
| 2026-04-30 14:34 | -7.08907 | 112.91714 | 15184 ft | 371 kts | 27° |
| 2026-04-30 14:34 | -7.06599 | 112.92894 | 15779 ft | 375 kts | 27° |
| 2026-04-30 14:34 | -7.04275 | 112.94084 | 16357 ft | 378 kts | 27° |
| 2026-04-30 14:35 | -7.00299 | 112.96119 | 17304 ft | 383 kts | 27° |
| 2026-04-30 14:35 | -6.97114 | 112.97749 | 18029 ft | 387 kts | 27° |
| 2026-04-30 14:35 | -6.94661 | 112.99004 | 18570 ft | 390 kts | 27° |
| 2026-04-30 14:36 | -6.92199 | 113.00262 | 19097 ft | 393 kts | 27° |
| 2026-04-30 14:36 | -6.89703 | 113.01539 | 19613 ft | 396 kts | 27° |
| 2026-04-30 14:36 | -6.87232 | 113.02797 | 20108 ft | 399 kts | 27° |
| 2026-04-30 14:36 | -6.84708 | 113.04080 | 20598 ft | 402 kts | 27° |
| 2026-04-30 14:37 | -6.82156 | 113.05379 | 21075 ft | 405 kts | 27° |
| 2026-04-30 14:37 | -6.79631 | 113.06667 | 21533 ft | 408 kts | 27° |
| 2026-04-30 14:37 | -6.77071 | 113.07975 | 21981 ft | 411 kts | 27° |
| 2026-04-30 14:37 | -6.74467 | 113.09305 | 22426 ft | 414 kts | 27° |
| 2026-04-30 14:38 | -6.71864 | 113.10634 | 22851 ft | 416 kts | 27° |
| 2026-04-30 14:38 | -6.69277 | 113.11955 | 23263 ft | 419 kts | 27° |
| 2026-04-30 14:38 | -6.66658 | 113.13294 | 23668 ft | 421 kts | 27° |
| 2026-04-30 14:38 | -6.63996 | 113.14654 | 24069 ft | 424 kts | 27° |
| 2026-04-30 14:39 | -6.61336 | 113.16013 | 24457 ft | 427 kts | 27° |
| 2026-04-30 14:39 | -6.58645 | 113.17387 | 24838 ft | 429 kts | 27° |
| 2026-04-30 14:39 | -6.55963 | 113.18758 | 25208 ft | 432 kts | 27° |
| 2026-04-30 14:40 | -6.50542 | 113.21526 | 25930 ft | 436 kts | 27° |
| 2026-04-30 14:40 | -6.47804 | 113.22925 | 26281 ft | 439 kts | 27° |
| 2026-04-30 14:40 | -6.45052 | 113.24331 | 26626 ft | 441 kts | 27° |
| 2026-04-30 14:40 | -6.42291 | 113.25742 | 26968 ft | 443 kts | 27° |
| 2026-04-30 14:41 | -6.39483 | 113.27176 | 27302 ft | 446 kts | 27° |
| 2026-04-30 14:41 | -6.36691 | 113.28603 | 27629 ft | 448 kts | 27° |
| 2026-04-30 14:41 | -6.33898 | 113.30031 | 27950 ft | 450 kts | 27° |
| 2026-04-30 14:41 | -6.31065 | 113.31480 | 28266 ft | 452 kts | 27° |
| 2026-04-30 14:42 | -6.28245 | 113.32921 | 28587 ft | 454 kts | 27° |
| 2026-04-30 14:42 | -6.25423 | 113.34360 | 29002 ft | 453 kts | 27° |
| 2026-04-30 14:42 | -6.22589 | 113.35775 | 29435 ft | 451 kts | 26° |
| 2026-04-30 14:42 | -6.19731 | 113.37167 | 29849 ft | 450 kts | 26° |
| 2026-04-30 14:43 | -6.16909 | 113.38535 | 30237 ft | 449 kts | 26° |
| 2026-04-30 14:43 | -6.14072 | 113.39912 | 30618 ft | 449 kts | 26° |
| 2026-04-30 14:43 | -6.11266 | 113.41277 | 30989 ft | 448 kts | 26° |
| 2026-04-30 14:43 | -6.08411 | 113.42668 | 31359 ft | 447 kts | 26° |
| 2026-04-30 14:44 | -6.05609 | 113.44035 | 31717 ft | 446 kts | 26° |
| 2026-04-30 14:44 | -6.02792 | 113.45409 | 32069 ft | 446 kts | 26° |
| 2026-04-30 14:44 | -5.99981 | 113.46781 | 32414 ft | 445 kts | 26° |
| 2026-04-30 14:44 | -5.97168 | 113.48154 | 32752 ft | 444 kts | 26° |
| 2026-04-30 14:45 | -5.94361 | 113.49525 | 33082 ft | 444 kts | 26° |
| 2026-04-30 14:45 | -5.91556 | 113.50893 | 33387 ft | 444 kts | 26° |
| 2026-04-30 14:45 | -5.88756 | 113.52260 | 33642 ft | 444 kts | 26° |
| 2026-04-30 14:45 | -5.85939 | 113.53626 | 33873 ft | 446 kts | 26° |
| 2026-04-30 14:46 | -5.83152 | 113.54977 | 34097 ft | 447 kts | 26° |
| 2026-04-30 14:46 | -5.80305 | 113.56361 | 34323 ft | 448 kts | 26° |
| 2026-04-30 14:46 | -5.77476 | 113.57736 | 34542 ft | 448 kts | 26° |
| 2026-04-30 14:46 | -5.74631 | 113.59122 | 34754 ft | 449 kts | 26° |
| 2026-04-30 14:47 | -5.71783 | 113.60510 | 34943 ft | 450 kts | 26° |
| 2026-04-30 14:47 | -5.68955 | 113.61887 | 34979 ft | 451 kts | 26° |
| 2026-04-30 14:47 | -5.63232 | 113.64677 | 34989 ft | 452 kts | 26° |
| 2026-04-30 14:48 | -5.57507 | 113.67490 | 34991 ft | 452 kts | 26° |
| 2026-04-30 14:48 | -5.51836 | 113.70276 | 34991 ft | 452 kts | 26° |
| 2026-04-30 14:49 | -5.46112 | 113.73074 | 34991 ft | 452 kts | 26° |
| 2026-04-30 14:49 | -5.40396 | 113.75862 | 34991 ft | 452 kts | 26° |
| 2026-04-30 14:50 | -5.31815 | 113.80044 | 34991 ft | 452 kts | 26° |
| 2026-04-30 14:51 | -5.23262 | 113.84209 | 34991 ft | 452 kts | 26° |
| 2026-04-30 14:52 | -5.14708 | 113.88374 | 34991 ft | 452 kts | 26° |
| 2026-04-30 14:52 | -5.06138 | 113.92546 | 34991 ft | 452 kts | 26° |
| 2026-04-30 14:53 | -4.97563 | 113.96720 | 34991 ft | 452 kts | 26° |
| 2026-04-30 14:54 | -4.86219 | 114.02322 | 34991 ft | 452 kts | 26° |
| 2026-04-30 14:55 | -4.77704 | 114.06545 | 34991 ft | 452 kts | 26° |
| 2026-04-30 14:56 | -4.66367 | 114.12181 | 34991 ft | 452 kts | 26° |
| 2026-04-30 14:57 | -4.57913 | 114.16385 | 34991 ft | 452 kts | 26° |
| 2026-04-30 14:58 | -4.46525 | 114.22046 | 34991 ft | 452 kts | 26° |
| 2026-04-30 14:58 | -4.38018 | 114.26274 | 34991 ft | 452 kts | 26° |
| 2026-04-30 15:00 | -4.23836 | 114.33320 | 34991 ft | 452 kts | 26° |
| 2026-04-30 15:01 | -4.12494 | 114.38953 | 34991 ft | 452 kts | 26° |
| 2026-04-30 15:01 | -4.03949 | 114.43196 | 34359 ft | 452 kts | 26° |
| 2026-04-30 15:02 | -4.01144 | 114.44589 | 33750 ft | 451 kts | 26° |
| 2026-04-30 15:02 | -3.98300 | 114.46001 | 33078 ft | 451 kts | 26° |
| 2026-04-30 15:03 | -3.89764 | 114.50238 | 30917 ft | 455 kts | 26° |
| 2026-04-30 15:03 | -3.84029 | 114.53071 | 29447 ft | 457 kts | 26° |
| 2026-04-30 15:04 | -3.78266 | 114.55922 | 27926 ft | 458 kts | 26° |
| 2026-04-30 15:04 | -3.69787 | 114.60129 | 26464 ft | 442 kts | 26° |
| 2026-04-30 15:05 | -3.61646 | 114.64174 | 24989 ft | 428 kts | 26° |
| 2026-04-30 15:06 | -3.56324 | 114.66835 | 24008 ft | 420 kts | 26° |
| 2026-04-30 15:06 | -3.51104 | 114.69445 | 23033 ft | 413 kts | 26° |
| 2026-04-30 15:07 | -3.45843 | 114.71681 | 22032 ft | 407 kts | 10° |
| 2026-04-30 15:07 | -3.40348 | 114.70951 | 21056 ft | 400 kts | 333° |
| 2026-04-30 15:08 | -3.35657 | 114.67953 | 20129 ft | 395 kts | 326° |
| 2026-04-30 15:08 | -3.28807 | 114.63353 | 18720 ft | 389 kts | 326° |
| 2026-04-30 15:09 | -3.24283 | 114.60362 | 17787 ft | 385 kts | 326° |
| 2026-04-30 15:09 | -3.19793 | 114.57408 | 16857 ft | 382 kts | 327° |
| 2026-04-30 15:10 | -3.15342 | 114.54484 | 15930 ft | 378 kts | 327° |
| 2026-04-30 15:11 | -3.06596 | 114.48743 | 14092 ft | 370 kts | 327° |
| 2026-04-30 15:11 | -3.02302 | 114.45924 | 13184 ft | 366 kts | 327° |
| 2026-04-30 15:12 | -2.95894 | 114.41720 | 11822 ft | 361 kts | 327° |
| 2026-04-30 15:13 | -2.91667 | 114.38947 | 10914 ft | 357 kts | 327° |
| 2026-04-30 15:14 | -2.83649 | 114.33702 | 10121 ft | 319 kts | 326° |
| 2026-04-30 15:14 | -2.78306 | 114.30181 | 9610 ft | 295 kts | 327° |
| 2026-04-30 15:16 | -2.70026 | 114.24754 | 7898 ft | 277 kts | 327° |
| 2026-04-30 15:17 | -2.63968 | 114.20024 | 6674 ft | 275 kts | 317° |
| 2026-04-30 15:18 | -2.57066 | 114.13541 | 5181 ft | 271 kts | 317° |
| 2026-04-30 15:19 | -2.52930 | 114.09673 | 4286 ft | 269 kts | 317° |